Thursday, April 28, 2016, 5:46 PM EDT

KOKV, Winchester Regional

Location: Winchester, VA, United States Lat: 39.15
Local Time: 5:46 PM EDT (21:46 GMT) Lon: -78.15
Time Zone: US/Eastern Elev: 728 ft

Show me the last for .
Show Decoded

2016-04-28 17:35 METAR KOKV 282135Z AUTO 03005KT 1 1/4SM BR OVC004 10/09 A2995 RMK AO2 =
2016-04-28 17:15 METAR KOKV 282115Z AUTO 03005KT 1 1/4SM BR OVC004 10/10 A2995 RMK AO2 =
2016-04-28 16:55 METAR KOKV 282055Z AUTO 00000KT 1SM BR OVC004 10/10 A2995 RMK AO2 =
2016-04-28 16:35 METAR KOKV 282035Z AUTO 04004KT 1SM BR OVC004 10/10 A2995 RMK AO2 =
2016-04-28 16:15 METAR KOKV 282015Z AUTO 04004KT 1 1/4SM BR OVC004 10/10 A2996 RMK AO2 LTG DSNT S
                 AND SW =
2016-04-28 15:55 METAR KOKV 281955Z AUTO 03003KT 1 1/2SM BR OVC004 11/10 A2996 RMK AO2 =
2016-04-28 15:35 METAR KOKV 281935Z AUTO 08005KT 2SM BR OVC006 11/10 A2996 RMK AO2 =
2016-04-28 15:15 METAR KOKV 281915Z AUTO 08004KT 2 1/2SM BR OVC006 11/10 A2996 RMK AO2 LTG DSNT
                 SW =
2016-04-28 14:55 METAR KOKV 281855Z AUTO 08005KT 2 1/2SM BR OVC006 11/10 A2996 RMK AO2 LTG DSNT
                 SW =
2016-04-28 14:35 METAR KOKV 281835Z AUTO 08005KT 3SM BR OVC006 11/10 A2997 RMK AO2 LTG DSNT SW =
2016-04-28 14:15 METAR KOKV 281815Z AUTO 09006KT 3SM BR OVC008 11/10 A2996 RMK AO2 =
2016-04-28 13:55 METAR KOKV 281755Z AUTO 09006KT 3SM VCTS BR OVC008 11/10 A2996 RMK AO2 LTG DSNT
                 SW =
2016-04-28 13:35 METAR KOKV 281735Z AUTO 09007KT 3SM BR OVC008 12/11 A2996 RMK AO2 =
2016-04-28 13:15 METAR KOKV 281715Z AUTO 10008KT 3SM BR OVC008 12/11 A2997 RMK AO2 =
2016-04-28 12:55 METAR KOKV 281655Z AUTO 09006KT 5SM BR OVC008 12/10 A2997 RMK AO2 =
2016-04-28 12:35 METAR KOKV 281635Z AUTO 09005KT 7SM OVC008 12/11 A2997 RMK AO2 =
2016-04-28 12:15 METAR KOKV 281615Z AUTO 09003KT 7SM OVC008 12/11 A2997 RMK AO2 =
2016-04-28 11:55 METAR KOKV 281555Z AUTO 09004KT 7SM OVC008 12/11 A2998 RMK AO2 =
2016-04-28 11:35 METAR KOKV 281535Z AUTO 07005KT 10SM OVC008 12/11 A2998 RMK AO2 =
2016-04-28 11:15 METAR KOKV 281515Z AUTO 08005KT 7SM BKN008 OVC014 12/11 A2998 RMK AO2 =
2016-04-28 10:55 METAR KOKV 281455Z AUTO 08008KT 5SM BR BKN006 OVC016 12/11 A2997 RMK AO2 =
2016-04-28 10:35 METAR KOKV 281435Z AUTO 08006KT 3SM RA OVC004 11/11 A2997 RMK AO2 =
2016-04-28 10:15 METAR KOKV 281415Z AUTO 09005KT 1 3/4SM -RA OVC004 11/11 A2997 RMK AO2 =
2016-04-28 09:55 METAR KOKV 281355Z AUTO 08005KT 1 1/4SM RA OVC004 11/11 A2997 RMK AO2 P0017 =
2016-04-28 09:35 METAR KOKV 281335Z AUTO 00000KT 1 1/4SM RA OVC004 11/11 A2998 RMK AO2 LTG DSNT S
                 P0011 =
2016-04-28 09:15 METAR KOKV 281315Z AUTO 07003KT 1 1/4SM RA OVC004 11/11 A2997 RMK AO2 P0005 =
2016-04-28 08:55 METAR KOKV 281255Z AUTO 00000KT 1 3/4SM RA OVC004 12/11 A2996 RMK AO2 P0003 =
2016-04-28 08:35 METAR KOKV 281235Z AUTO 08003KT 1 3/4SM -RA OVC004 11/11 A2996 RMK AO2 LTG DSNT
                 SW P0002 =
2016-04-28 08:15 METAR KOKV 281215Z AUTO 07003KT 1 1/2SM -RA OVC004 12/11 A2996 RMK AO2 =
2016-04-28 07:55 METAR KOKV 281155Z AUTO 08007KT 1 3/4SM BR OVC004 12/11 A2996 RMK AO2 LTG DSNT W
                 =
2016-04-28 07:35 METAR KOKV 281135Z AUTO 09005KT 1 1/2SM BR OVC004 12/11 A2995 RMK AO2 LTG DSNT W
                 =
2016-04-28 07:15 METAR KOKV 281115Z AUTO 06004KT 1SM BR OVC002 12/11 A2995 RMK AO2 =
2016-04-28 06:55 METAR KOKV 281055Z AUTO 09005KT 1 1/4SM BR OVC002 12/11 A2994 RMK AO2 =
2016-04-28 06:35 METAR KOKV 281035Z AUTO 08003KT 1 1/4SM BR OVC002 12/11 A2994 RMK AO2 =
2016-04-28 06:15 METAR KOKV 281015Z AUTO 08004KT 1 1/4SM RA OVC002 11/11 A2992 RMK AO2 =
2016-04-28 05:55 METAR KOKV 280955Z AUTO 05003KT 2SM -RA OVC004 11/11 A2992 RMK AO2 =
2016-04-28 05:35 METAR KOKV 280935Z AUTO 00000KT 2 1/2SM BR OVC004 12/11 A2992 RMK AO2 =
2016-04-28 05:15 METAR KOKV 280915Z AUTO 00000KT 2 1/2SM BR OVC004 11/11 A2992 RMK AO2 =
2016-04-28 04:55 METAR KOKV 280855Z AUTO 04003KT 2 1/2SM BR OVC004 11/11 A2992 RMK AO2 =
2016-04-28 04:35 METAR KOKV 280835Z AUTO 00000KT 2 1/2SM BR OVC004 11/11 A2992 RMK AO2 =
2016-04-28 04:15 METAR KOKV 280815Z AUTO 00000KT 2 1/2SM BR OVC004 11/11 A2991 RMK AO2 =
2016-04-28 03:55 METAR KOKV 280755Z AUTO 00000KT 2 1/2SM BR OVC004 11/11 A2991 RMK AO2 =
2016-04-28 03:35 METAR KOKV 280735Z AUTO 01003KT 2 1/2SM BR OVC004 11/11 A2991 RMK AO2 =
2016-04-28 03:15 METAR KOKV 280715Z AUTO 01003KT 2 1/2SM BR OVC004 11/11 A2992 RMK AO2 =
2016-04-28 02:55 METAR KOKV 280655Z AUTO 00000KT 2 1/2SM BR OVC004 12/11 A2991 RMK AO2 =
2016-04-28 02:35 METAR KOKV 280635Z AUTO 00000KT 2 1/2SM BR OVC006 12/11 A2990 RMK AO2 =
2016-04-28 02:15 METAR KOKV 280615Z AUTO 05003KT 2 1/2SM BR OVC006 12/11 A2991 RMK AO2 =
2016-04-28 01:55 METAR KOKV 280555Z AUTO 00000KT 2 1/2SM BR OVC006 12/11 A2991 RMK AO2 LTG DSNT S
                 =
2016-04-28 01:35 METAR KOKV 280535Z AUTO 00000KT 2 1/2SM BR OVC006 12/11 A2989 RMK AO2 =
2016-04-28 01:15 METAR KOKV 280515Z AUTO 00000KT 3SM BR OVC006 12/11 A2991 RMK AO2 =
2016-04-28 00:55 METAR KOKV 280455Z AUTO 00000KT 2 1/2SM BR OVC006 11/10 A2991 RMK AO2 =
2016-04-28 00:35 METAR KOKV 280435Z AUTO 00000KT 2 1/2SM BR OVC008 11/11 A2989 RMK AO2 =
2016-04-28 00:15 METAR KOKV 280415Z AUTO 00000KT 3SM BR OVC008 12/11 A2990 RMK AO2 =
2016-04-27 23:55 METAR KOKV 280355Z AUTO 00000KT 3SM BR BKN008 OVC090 12/11 A2991 RMK AO2 =
2016-04-27 23:35 METAR KOKV 280335Z AUTO 00000KT 2 1/2SM BR BKN008 OVC090 12/11 A2992 RMK AO2 =
2016-04-27 23:15 METAR KOKV 280315Z AUTO 00000KT 3SM BR SCT008 OVC090 12/11 A2992 RMK AO2 =
2016-04-27 22:55 METAR KOKV 280255Z AUTO 00000KT 3SM BR OVC008 12/11 A2993 RMK AO2 =
2016-04-27 22:35 METAR KOKV 280235Z AUTO 00000KT 2 1/2SM BR OVC008 12/11 A2993 RMK AO2 =
2016-04-27 22:15 METAR KOKV 280215Z AUTO 00000KT 2 1/2SM BR OVC008 12/11 A2993 RMK AO2 =
2016-04-27 21:55 METAR KOKV 280155Z AUTO 00000KT 3SM BR OVC006 12/11 A2993 RMK AO2 =
2016-04-27 21:35 METAR KOKV 280135Z AUTO 00000KT 3SM BR OVC006 12/11 A2992 RMK AO2 =
2016-04-27 21:15 METAR KOKV 280115Z AUTO 00000KT 3SM BR OVC006 12/11 A2992 RMK AO2 =
2016-04-27 20:55 METAR KOKV 280055Z AUTO 00000KT 3SM BR OVC006 12/11 A2992 RMK AO2 =
2016-04-27 20:35 METAR KOKV 280035Z AUTO 00000KT 4SM BR OVC008 12/11 A2992 RMK AO2 =
2016-04-27 20:15 METAR KOKV 280015Z AUTO 00000KT 4SM -DZ OVC008 12/11 A2991 RMK AO2 =
2016-04-27 19:55 METAR KOKV 272355Z AUTO 01003KT 3SM -RA OVC008 12/11 A2991 RMK AO2 =
2016-04-27 19:35 METAR KOKV 272335Z AUTO 02004KT 3SM BR OVC010 12/11 A2991 RMK AO2 =
2016-04-27 19:15 METAR KOKV 272315Z AUTO 01003KT 4SM BR OVC012 13/11 A2991 RMK AO2 =
2016-04-27 18:55 METAR KOKV 272255Z AUTO 04003KT 3SM -RA OVC012 13/11 A2990 RMK AO2 =
2016-04-27 18:35 METAR KOKV 272235Z AUTO 05003KT 3SM -DZ OVC012 13/11 A2989 RMK AO2 =
2016-04-27 18:15 METAR KOKV 272215Z AUTO 06004KT 4SM HZ OVC012 13/10 A2990 RMK AO2 =
2016-04-27 17:55 METAR KOKV 272155Z AUTO 01004KT 4SM HZ OVC010 13/10 A2990 RMK AO2 =

Support USWX by starting your Amazon purchase here.